sensor_id;sensor_type;location;lat;lon;timestamp;P1;durP1;ratioP1;P2;durP2;ratioP2
54271;SDS011;40184;53.362;5.216;2023-09-19T00:01:41;14.77;;;3.60;;
54271;SDS011;40184;53.362;5.216;2023-09-19T00:04:10;13.55;;;2.95;;
54271;SDS011;40184;53.362;5.216;2023-09-19T00:06:38;24.80;;;5.05;;
54271;SDS011;40184;53.362;5.216;2023-09-19T00:09:04;13.80;;;2.67;;
54271;SDS011;40184;53.362;5.216;2023-09-19T00:11:35;20.50;;;3.28;;
54271;SDS011;40184;53.362;5.216;2023-09-19T00:14:01;23.17;;;3.35;;
54271;SDS011;40184;53.362;5.216;2023-09-19T00:16:27;17.27;;;2.83;;
54271;SDS011;40184;53.362;5.216;2023-09-19T00:18:53;11.13;;;2.65;;
54271;SDS011;40184;53.362;5.216;2023-09-19T00:21:20;17.92;;;2.95;;
54271;SDS011;40184;53.362;5.216;2023-09-19T00:23:46;21.65;;;3.10;;
54271;SDS011;40184;53.362;5.216;2023-09-19T00:26:12;14.85;;;3.65;;
54271;SDS011;40184;53.362;5.216;2023-09-19T00:28:39;10.63;;;2.65;;
54271;SDS011;40184;53.362;5.216;2023-09-19T00:31:07;13.07;;;3.00;;
54271;SDS011;40184;53.362;5.216;2023-09-19T00:33:33;10.02;;;2.20;;
54271;SDS011;40184;53.362;5.216;2023-09-19T00:35:59;12.20;;;2.70;;
54271;SDS011;40184;53.362;5.216;2023-09-19T00:38:29;10.20;;;2.40;;
54271;SDS011;40184;53.362;5.216;2023-09-19T00:40:57;8.80;;;2.80;;
54271;SDS011;40184;53.362;5.216;2023-09-19T00:43:24;12.10;;;3.03;;
54271;SDS011;40184;53.362;5.216;2023-09-19T00:45:52;10.00;;;2.63;;
54271;SDS011;40184;53.362;5.216;2023-09-19T00:48:20;9.85;;;2.67;;
54271;SDS011;40184;53.362;5.216;2023-09-19T00:50:47;13.27;;;2.72;;
54271;SDS011;40184;53.362;5.216;2023-09-19T00:53:15;13.50;;;3.15;;
54271;SDS011;40184;53.362;5.216;2023-09-19T00:55:44;10.48;;;2.55;;
54271;SDS011;40184;53.362;5.216;2023-09-19T00:58:10;8.55;;;2.45;;
54271;SDS011;40184;53.362;5.216;2023-09-19T01:00:37;11.35;;;2.60;;
54271;SDS011;40184;53.362;5.216;2023-09-19T01:03:03;11.90;;;2.78;;
54271;SDS011;40184;53.362;5.216;2023-09-19T01:05:31;12.25;;;2.50;;
54271;SDS011;40184;53.362;5.216;2023-09-19T01:07:59;10.20;;;3.03;;
54271;SDS011;40184;53.362;5.216;2023-09-19T01:10:25;13.77;;;3.65;;
54271;SDS011;40184;53.362;5.216;2023-09-19T01:12:54;11.70;;;2.50;;
54271;SDS011;40184;53.362;5.216;2023-09-19T01:15:24;13.13;;;2.58;;
54271;SDS011;40184;53.362;5.216;2023-09-19T01:18:02;9.70;;;2.85;;
54271;SDS011;40184;53.362;5.216;2023-09-19T01:25:33;13.85;;;3.05;;
54271;SDS011;40184;53.362;5.216;2023-09-19T01:28:14;13.23;;;3.30;;
54271;SDS011;40184;53.362;5.216;2023-09-19T01:30:42;9.90;;;2.88;;
54271;SDS011;40184;53.362;5.216;2023-09-19T01:33:09;8.05;;;2.53;;
54271;SDS011;40184;53.362;5.216;2023-09-19T01:35:39;9.93;;;2.65;;
54271;SDS011;40184;53.362;5.216;2023-09-19T01:38:05;8.68;;;3.13;;
54271;SDS011;40184;53.362;5.216;2023-09-19T01:40:34;16.00;;;3.60;;
54271;SDS011;40184;53.362;5.216;2023-09-19T01:43:20;7.30;;;2.25;;
54271;SDS011;40184;53.362;5.216;2023-09-19T01:46:06;8.85;;;2.25;;
54271;SDS011;40184;53.362;5.216;2023-09-19T01:53:27;11.98;;;3.35;;
54271;SDS011;40184;53.362;5.216;2023-09-19T01:55:55;12.45;;;2.38;;
54271;SDS011;40184;53.362;5.216;2023-09-19T02:00:58;12.57;;;3.85;;
54271;SDS011;40184;53.362;5.216;2023-09-19T02:03:25;14.30;;;2.78;;
54271;SDS011;40184;53.362;5.216;2023-09-19T02:05:54;11.02;;;3.00;;
54271;SDS011;40184;53.362;5.216;2023-09-19T02:08:20;12.07;;;2.80;;
54271;SDS011;40184;53.362;5.216;2023-09-19T02:10:50;12.57;;;2.67;;
54271;SDS011;40184;53.362;5.216;2023-09-19T02:13:20;9.25;;;2.60;;
54271;SDS011;40184;53.362;5.216;2023-09-19T02:15:49;11.20;;;3.67;;
54271;SDS011;40184;53.362;5.216;2023-09-19T02:18:15;8.60;;;2.60;;
54271;SDS011;40184;53.362;5.216;2023-09-19T02:20:42;10.65;;;3.47;;
54271;SDS011;40184;53.362;5.216;2023-09-19T02:23:08;15.43;;;3.30;;
54271;SDS011;40184;53.362;5.216;2023-09-19T02:25:34;8.52;;;2.53;;
54271;SDS011;40184;53.362;5.216;2023-09-19T02:28:01;14.18;;;4.05;;
54271;SDS011;40184;53.362;5.216;2023-09-19T02:30:28;12.40;;;2.30;;
54271;SDS011;40184;53.362;5.216;2023-09-19T02:32:54;10.55;;;2.95;;
54271;SDS011;40184;53.362;5.216;2023-09-19T02:35:20;11.57;;;2.85;;
54271;SDS011;40184;53.362;5.216;2023-09-19T02:37:46;14.27;;;3.03;;
54271;SDS011;40184;53.362;5.216;2023-09-19T02:40:13;18.15;;;3.58;;
54271;SDS011;40184;53.362;5.216;2023-09-19T02:42:48;11.43;;;2.90;;
54271;SDS011;40184;53.362;5.216;2023-09-19T02:45:18;13.50;;;3.00;;
54271;SDS011;40184;53.362;5.216;2023-09-19T02:47:44;12.05;;;2.92;;
54271;SDS011;40184;53.362;5.216;2023-09-19T02:50:11;13.52;;;3.15;;
54271;SDS011;40184;53.362;5.216;2023-09-19T02:52:37;15.43;;;2.78;;
54271;SDS011;40184;53.362;5.216;2023-09-19T02:55:03;15.68;;;3.15;;
54271;SDS011;40184;53.362;5.216;2023-09-19T02:57:34;10.85;;;2.47;;
54271;SDS011;40184;53.362;5.216;2023-09-19T03:00:01;10.63;;;2.75;;
54271;SDS011;40184;53.362;5.216;2023-09-19T03:02:27;10.88;;;3.38;;
54271;SDS011;40184;53.362;5.216;2023-09-19T03:04:53;10.68;;;4.00;;
54271;SDS011;40184;53.362;5.216;2023-09-19T03:07:21;14.27;;;3.10;;
54271;SDS011;40184;53.362;5.216;2023-09-19T03:09:47;12.27;;;2.47;;
54271;SDS011;40184;53.362;5.216;2023-09-19T03:12:14;15.82;;;3.40;;
54271;SDS011;40184;53.362;5.216;2023-09-19T03:14:40;11.25;;;2.35;;
54271;SDS011;40184;53.362;5.216;2023-09-19T03:17:07;9.60;;;2.60;;
54271;SDS011;40184;53.362;5.216;2023-09-19T03:19:34;11.23;;;2.78;;
54271;SDS011;40184;53.362;5.216;2023-09-19T03:22:00;8.73;;;2.33;;
54271;SDS011;40184;53.362;5.216;2023-09-19T03:24:28;17.10;;;3.50;;
54271;SDS011;40184;53.362;5.216;2023-09-19T03:26:54;16.90;;;4.13;;
54271;SDS011;40184;53.362;5.216;2023-09-19T03:29:20;13.75;;;3.53;;
54271;SDS011;40184;53.362;5.216;2023-09-19T03:31:47;16.08;;;2.67;;
54271;SDS011;40184;53.362;5.216;2023-09-19T03:34:13;17.25;;;4.45;;
54271;SDS011;40184;53.362;5.216;2023-09-19T03:36:39;11.70;;;3.13;;
54271;SDS011;40184;53.362;5.216;2023-09-19T03:39:06;14.02;;;3.35;;
54271;SDS011;40184;53.362;5.216;2023-09-19T03:41:32;11.57;;;3.53;;
54271;SDS011;40184;53.362;5.216;2023-09-19T03:44:01;13.68;;;3.13;;
54271;SDS011;40184;53.362;5.216;2023-09-19T03:46:27;12.23;;;3.00;;
54271;SDS011;40184;53.362;5.216;2023-09-19T03:48:55;9.18;;;2.92;;
54271;SDS011;40184;53.362;5.216;2023-09-19T03:51:21;10.27;;;2.65;;
54271;SDS011;40184;53.362;5.216;2023-09-19T03:53:47;10.85;;;3.45;;
54271;SDS011;40184;53.362;5.216;2023-09-19T03:56:15;15.98;;;2.83;;
54271;SDS011;40184;53.362;5.216;2023-09-19T03:58:41;13.32;;;2.55;;
54271;SDS011;40184;53.362;5.216;2023-09-19T04:01:07;10.50;;;2.95;;
54271;SDS011;40184;53.362;5.216;2023-09-19T04:03:33;18.73;;;3.40;;
54271;SDS011;40184;53.362;5.216;2023-09-19T04:06:10;11.60;;;2.83;;
54271;SDS011;40184;53.362;5.216;2023-09-19T04:08:37;15.13;;;3.15;;
54271;SDS011;40184;53.362;5.216;2023-09-19T04:11:03;12.45;;;2.58;;
54271;SDS011;40184;53.362;5.216;2023-09-19T04:13:29;13.23;;;3.22;;
54271;SDS011;40184;53.362;5.216;2023-09-19T04:15:55;13.65;;;3.25;;
54271;SDS011;40184;53.362;5.216;2023-09-19T04:18:21;11.13;;;2.78;;
54271;SDS011;40184;53.362;5.216;2023-09-19T04:20:52;13.35;;;2.70;;
54271;SDS011;40184;53.362;5.216;2023-09-19T04:23:18;21.30;;;4.63;;
54271;SDS011;40184;53.362;5.216;2023-09-19T04:25:48;12.18;;;3.03;;
54271;SDS011;40184;53.362;5.216;2023-09-19T04:28:14;16.40;;;3.05;;
54271;SDS011;40184;53.362;5.216;2023-09-19T04:30:40;18.35;;;4.32;;
54271;SDS011;40184;53.362;5.216;2023-09-19T04:33:07;13.05;;;2.72;;
54271;SDS011;40184;53.362;5.216;2023-09-19T04:35:33;10.95;;;2.95;;
54271;SDS011;40184;53.362;5.216;2023-09-19T04:38:00;17.45;;;3.97;;
54271;SDS011;40184;53.362;5.216;2023-09-19T04:40:28;18.70;;;3.75;;
54271;SDS011;40184;53.362;5.216;2023-09-19T04:42:55;16.17;;;3.78;;
54271;SDS011;40184;53.362;5.216;2023-09-19T04:45:25;14.90;;;3.20;;
54271;SDS011;40184;53.362;5.216;2023-09-19T04:47:51;9.60;;;2.95;;
54271;SDS011;40184;53.362;5.216;2023-09-19T04:50:18;13.43;;;3.38;;
54271;SDS011;40184;53.362;5.216;2023-09-19T04:52:49;11.63;;;2.90;;
54271;SDS011;40184;53.362;5.216;2023-09-19T04:55:16;8.80;;;2.50;;
54271;SDS011;40184;53.362;5.216;2023-09-19T04:57:43;10.07;;;2.13;;
54271;SDS011;40184;53.362;5.216;2023-09-19T05:00:11;17.23;;;3.03;;
54271;SDS011;40184;53.362;5.216;2023-09-19T05:02:38;17.80;;;3.25;;
54271;SDS011;40184;53.362;5.216;2023-09-19T05:05:05;13.77;;;3.40;;
54271;SDS011;40184;53.362;5.216;2023-09-19T05:07:32;14.77;;;3.55;;
54271;SDS011;40184;53.362;5.216;2023-09-19T05:09:59;20.67;;;4.85;;
54271;SDS011;40184;53.362;5.216;2023-09-19T05:12:28;17.98;;;5.13;;
54271;SDS011;40184;53.362;5.216;2023-09-19T05:14:54;13.38;;;3.28;;
54271;SDS011;40184;53.362;5.216;2023-09-19T05:17:21;17.55;;;3.58;;
54271;SDS011;40184;53.362;5.216;2023-09-19T05:19:47;19.52;;;3.78;;
54271;SDS011;40184;53.362;5.216;2023-09-19T05:22:13;21.63;;;4.10;;
54271;SDS011;40184;53.362;5.216;2023-09-19T05:24:39;17.38;;;4.55;;
54271;SDS011;40184;53.362;5.216;2023-09-19T05:27:05;14.68;;;3.28;;
54271;SDS011;40184;53.362;5.216;2023-09-19T05:29:32;17.65;;;3.25;;
54271;SDS011;40184;53.362;5.216;2023-09-19T05:31:58;12.27;;;3.90;;
54271;SDS011;40184;53.362;5.216;2023-09-19T05:34:25;17.52;;;3.70;;
54271;SDS011;40184;53.362;5.216;2023-09-19T05:36:55;16.27;;;3.15;;
54271;SDS011;40184;53.362;5.216;2023-09-19T05:39:21;24.40;;;4.00;;
54271;SDS011;40184;53.362;5.216;2023-09-19T05:41:48;22.35;;;4.78;;
54271;SDS011;40184;53.362;5.216;2023-09-19T05:44:14;21.08;;;4.30;;
54271;SDS011;40184;53.362;5.216;2023-09-19T05:46:40;13.93;;;3.47;;
54271;SDS011;40184;53.362;5.216;2023-09-19T05:49:06;16.38;;;3.58;;
54271;SDS011;40184;53.362;5.216;2023-09-19T05:51:32;9.93;;;2.88;;
54271;SDS011;40184;53.362;5.216;2023-09-19T05:53:58;10.50;;;2.78;;
54271;SDS011;40184;53.362;5.216;2023-09-19T05:56:24;15.43;;;3.50;;
54271;SDS011;40184;53.362;5.216;2023-09-19T05:58:50;17.58;;;3.30;;
54271;SDS011;40184;53.362;5.216;2023-09-19T06:01:17;14.73;;;3.63;;
54271;SDS011;40184;53.362;5.216;2023-09-19T06:03:43;18.00;;;3.80;;
54271;SDS011;40184;53.362;5.216;2023-09-19T06:06:09;15.80;;;3.35;;
54271;SDS011;40184;53.362;5.216;2023-09-19T06:08:35;14.13;;;3.15;;
54271;SDS011;40184;53.362;5.216;2023-09-19T06:11:02;13.52;;;3.40;;
54271;SDS011;40184;53.362;5.216;2023-09-19T06:13:32;14.70;;;3.28;;
54271;SDS011;40184;53.362;5.216;2023-09-19T06:15:58;11.60;;;2.90;;
54271;SDS011;40184;53.362;5.216;2023-09-19T06:18:29;11.48;;;3.30;;
54271;SDS011;40184;53.362;5.216;2023-09-19T06:20:58;24.23;;;4.18;;
54271;SDS011;40184;53.362;5.216;2023-09-19T06:23:24;12.38;;;2.88;;
54271;SDS011;40184;53.362;5.216;2023-09-19T06:25:53;14.95;;;3.00;;
54271;SDS011;40184;53.362;5.216;2023-09-19T06:28:20;15.90;;;2.97;;
54271;SDS011;40184;53.362;5.216;2023-09-19T06:30:50;12.20;;;3.58;;
54271;SDS011;40184;53.362;5.216;2023-09-19T06:33:17;13.68;;;3.35;;
54271;SDS011;40184;53.362;5.216;2023-09-19T06:35:45;22.02;;;3.95;;
54271;SDS011;40184;53.362;5.216;2023-09-19T06:38:12;12.30;;;2.95;;
54271;SDS011;40184;53.362;5.216;2023-09-19T06:40:40;13.88;;;3.40;;
54271;SDS011;40184;53.362;5.216;2023-09-19T06:43:12;16.25;;;3.95;;
54271;SDS011;40184;53.362;5.216;2023-09-19T06:45:39;7.53;;;2.35;;
54271;SDS011;40184;53.362;5.216;2023-09-19T06:48:05;16.08;;;3.65;;
54271;SDS011;40184;53.362;5.216;2023-09-19T06:50:32;8.77;;;2.55;;
54271;SDS011;40184;53.362;5.216;2023-09-19T06:52:59;16.98;;;3.78;;
54271;SDS011;40184;53.362;5.216;2023-09-19T06:55:27;13.35;;;2.70;;
54271;SDS011;40184;53.362;5.216;2023-09-19T06:57:56;20.45;;;4.45;;
54271;SDS011;40184;53.362;5.216;2023-09-19T07:00:22;13.55;;;3.50;;
54271;SDS011;40184;53.362;5.216;2023-09-19T07:02:55;20.80;;;4.20;;
54271;SDS011;40184;53.362;5.216;2023-09-19T07:05:22;14.18;;;3.75;;
54271;SDS011;40184;53.362;5.216;2023-09-19T07:07:48;18.73;;;3.72;;
54271;SDS011;40184;53.362;5.216;2023-09-19T07:10:14;25.63;;;5.05;;
54271;SDS011;40184;53.362;5.216;2023-09-19T07:12:40;12.73;;;3.70;;
54271;SDS011;40184;53.362;5.216;2023-09-19T07:15:07;13.05;;;3.85;;
54271;SDS011;40184;53.362;5.216;2023-09-19T07:17:33;19.63;;;4.05;;
54271;SDS011;40184;53.362;5.216;2023-09-19T07:20:00;17.42;;;4.28;;
54271;SDS011;40184;53.362;5.216;2023-09-19T07:22:26;25.05;;;5.57;;
54271;SDS011;40184;53.362;5.216;2023-09-19T07:24:52;16.45;;;4.25;;
54271;SDS011;40184;53.362;5.216;2023-09-19T07:27:18;18.60;;;3.35;;
54271;SDS011;40184;53.362;5.216;2023-09-19T07:29:44;19.25;;;4.28;;
54271;SDS011;40184;53.362;5.216;2023-09-19T07:32:10;12.60;;;3.25;;
54271;SDS011;40184;53.362;5.216;2023-09-19T07:34:37;20.70;;;4.43;;
54271;SDS011;40184;53.362;5.216;2023-09-19T07:37:06;25.05;;;3.88;;
54271;SDS011;40184;53.362;5.216;2023-09-19T07:39:33;21.52;;;4.18;;
54271;SDS011;40184;53.362;5.216;2023-09-19T07:41:59;21.27;;;3.58;;
54271;SDS011;40184;53.362;5.216;2023-09-19T07:44:25;16.23;;;3.85;;
54271;SDS011;40184;53.362;5.216;2023-09-19T07:46:51;15.73;;;3.80;;
54271;SDS011;40184;53.362;5.216;2023-09-19T07:49:18;16.25;;;3.97;;
54271;SDS011;40184;53.362;5.216;2023-09-19T07:51:44;19.92;;;3.80;;
54271;SDS011;40184;53.362;5.216;2023-09-19T07:54:13;27.50;;;5.47;;
54271;SDS011;40184;53.362;5.216;2023-09-19T07:56:40;23.63;;;4.13;;
54271;SDS011;40184;53.362;5.216;2023-09-19T07:59:06;17.55;;;4.00;;
54271;SDS011;40184;53.362;5.216;2023-09-19T08:01:34;24.17;;;5.22;;
54271;SDS011;40184;53.362;5.216;2023-09-19T08:04:00;22.20;;;5.20;;
54271;SDS011;40184;53.362;5.216;2023-09-19T08:06:26;24.75;;;4.90;;
54271;SDS011;40184;53.362;5.216;2023-09-19T08:08:55;20.65;;;5.00;;
54271;SDS011;40184;53.362;5.216;2023-09-19T08:11:23;21.38;;;4.40;;
54271;SDS011;40184;53.362;5.216;2023-09-19T08:13:49;21.52;;;5.72;;
54271;SDS011;40184;53.362;5.216;2023-09-19T08:16:16;21.92;;;4.03;;
54271;SDS011;40184;53.362;5.216;2023-09-19T08:18:47;20.75;;;4.78;;
54271;SDS011;40184;53.362;5.216;2023-09-19T08:21:13;20.83;;;4.30;;
54271;SDS011;40184;53.362;5.216;2023-09-19T08:23:40;13.30;;;4.45;;
54271;SDS011;40184;53.362;5.216;2023-09-19T08:26:07;18.02;;;4.28;;
54271;SDS011;40184;53.362;5.216;2023-09-19T08:28:33;26.70;;;6.35;;
54271;SDS011;40184;53.362;5.216;2023-09-19T08:31:03;18.58;;;4.53;;
54271;SDS011;40184;53.362;5.216;2023-09-19T08:33:32;22.90;;;6.10;;
54271;SDS011;40184;53.362;5.216;2023-09-19T08:35:58;22.85;;;4.97;;
54271;SDS011;40184;53.362;5.216;2023-09-19T08:38:24;20.83;;;4.38;;
54271;SDS011;40184;53.362;5.216;2023-09-19T08:40:57;14.93;;;4.05;;
54271;SDS011;40184;53.362;5.216;2023-09-19T08:43:24;13.48;;;4.45;;
54271;SDS011;40184;53.362;5.216;2023-09-19T08:45:51;27.08;;;5.45;;
54271;SDS011;40184;53.362;5.216;2023-09-19T08:48:28;22.08;;;5.13;;
54271;SDS011;40184;53.362;5.216;2023-09-19T08:55:55;21.02;;;4.07;;
54271;SDS011;40184;53.362;5.216;2023-09-19T08:58:24;18.80;;;4.80;;
54271;SDS011;40184;53.362;5.216;2023-09-19T09:00:54;17.40;;;4.72;;
54271;SDS011;40184;53.362;5.216;2023-09-19T09:03:21;18.67;;;4.35;;
54271;SDS011;40184;53.362;5.216;2023-09-19T09:05:48;20.35;;;5.35;;
54271;SDS011;40184;53.362;5.216;2023-09-19T09:08:15;18.15;;;5.03;;
54271;SDS011;40184;53.362;5.216;2023-09-19T09:10:44;22.92;;;5.47;;
54271;SDS011;40184;53.362;5.216;2023-09-19T09:13:10;20.70;;;5.20;;
54271;SDS011;40184;53.362;5.216;2023-09-19T09:15:39;24.25;;;5.00;;
54271;SDS011;40184;53.362;5.216;2023-09-19T09:18:06;22.73;;;5.65;;
54271;SDS011;40184;53.362;5.216;2023-09-19T09:20:32;26.17;;;5.28;;
54271;SDS011;40184;53.362;5.216;2023-09-19T09:22:58;19.48;;;5.75;;
54271;SDS011;40184;53.362;5.216;2023-09-19T09:28:25;30.92;;;5.78;;
54271;SDS011;40184;53.362;5.216;2023-09-19T09:30:53;28.08;;;8.40;;
54271;SDS011;40184;53.362;5.216;2023-09-19T09:33:19;21.00;;;6.15;;
54271;SDS011;40184;53.362;5.216;2023-09-19T09:35:53;26.52;;;6.28;;
54271;SDS011;40184;53.362;5.216;2023-09-19T09:38:22;21.05;;;4.43;;
54271;SDS011;40184;53.362;5.216;2023-09-19T09:40:58;18.23;;;4.88;;
54271;SDS011;40184;53.362;5.216;2023-09-19T09:43:25;20.90;;;5.88;;
54271;SDS011;40184;53.362;5.216;2023-09-19T09:46:06;24.70;;;5.28;;
54271;SDS011;40184;53.362;5.216;2023-09-19T09:49:01;39.72;;;6.72;;
54271;SDS011;40184;53.362;5.216;2023-09-19T09:54:24;24.50;;;7.28;;
54271;SDS011;40184;53.362;5.216;2023-09-19T09:57:01;35.78;;;6.05;;
54271;SDS011;40184;53.362;5.216;2023-09-19T10:02:12;23.38;;;5.78;;
54271;SDS011;40184;53.362;5.216;2023-09-19T10:04:39;26.17;;;6.28;;
54271;SDS011;40184;53.362;5.216;2023-09-19T10:07:26;23.65;;;6.00;;
54271;SDS011;40184;53.362;5.216;2023-09-19T10:09:57;28.33;;;6.60;;
54271;SDS011;40184;53.362;5.216;2023-09-19T10:12:30;23.33;;;5.78;;
54271;SDS011;40184;53.362;5.216;2023-09-19T10:14:57;21.08;;;5.28;;
54271;SDS011;40184;53.362;5.216;2023-09-19T10:17:25;23.75;;;5.30;;
54271;SDS011;40184;53.362;5.216;2023-09-19T10:19:56;18.63;;;4.53;;
54271;SDS011;40184;53.362;5.216;2023-09-19T10:22:23;27.38;;;4.85;;
54271;SDS011;40184;53.362;5.216;2023-09-19T10:24:53;23.70;;;5.15;;
54271;SDS011;40184;53.362;5.216;2023-09-19T10:27:19;20.27;;;4.53;;
54271;SDS011;40184;53.362;5.216;2023-09-19T10:29:48;22.45;;;5.20;;
54271;SDS011;40184;53.362;5.216;2023-09-19T10:32:21;29.70;;;6.68;;
54271;SDS011;40184;53.362;5.216;2023-09-19T10:34:48;22.40;;;4.70;;
54271;SDS011;40184;53.362;5.216;2023-09-19T10:37:17;24.88;;;4.90;;
54271;SDS011;40184;53.362;5.216;2023-09-19T10:39:46;21.80;;;5.53;;
54271;SDS011;40184;53.362;5.216;2023-09-19T10:42:16;28.73;;;5.68;;
54271;SDS011;40184;53.362;5.216;2023-09-19T10:44:45;29.90;;;7.25;;
54271;SDS011;40184;53.362;5.216;2023-09-19T10:47:11;18.83;;;4.78;;
54271;SDS011;40184;53.362;5.216;2023-09-19T10:49:44;27.55;;;5.53;;
54271;SDS011;40184;53.362;5.216;2023-09-19T10:52:15;27.00;;;5.35;;
54271;SDS011;40184;53.362;5.216;2023-09-19T10:54:48;29.20;;;5.95;;
54271;SDS011;40184;53.362;5.216;2023-09-19T10:57:20;27.08;;;6.82;;
54271;SDS011;40184;53.362;5.216;2023-09-19T11:05:36;35.47;;;7.22;;
54271;SDS011;40184;53.362;5.216;2023-09-19T11:08:06;33.22;;;8.23;;
54271;SDS011;40184;53.362;5.216;2023-09-19T11:10:45;35.38;;;6.72;;
54271;SDS011;40184;53.362;5.216;2023-09-19T11:13:28;26.90;;;6.75;;
54271;SDS011;40184;53.362;5.216;2023-09-19T11:26:57;39.28;;;8.65;;
54271;SDS011;40184;53.362;5.216;2023-09-19T11:29:34;39.45;;;8.35;;
54271;SDS011;40184;53.362;5.216;2023-09-19T11:32:01;42.95;;;7.97;;
54271;SDS011;40184;53.362;5.216;2023-09-19T11:39:39;43.72;;;9.27;;
54271;SDS011;40184;53.362;5.216;2023-09-19T11:44:53;40.90;;;9.68;;
54271;SDS011;40184;53.362;5.216;2023-09-19T11:47:21;45.63;;;9.88;;
54271;SDS011;40184;53.362;5.216;2023-09-19T11:49:50;40.33;;;9.30;;
54271;SDS011;40184;53.362;5.216;2023-09-19T11:52:21;42.63;;;7.57;;
54271;SDS011;40184;53.362;5.216;2023-09-19T11:54:55;49.65;;;10.07;;
54271;SDS011;40184;53.362;5.216;2023-09-19T11:57:22;34.40;;;7.13;;
54271;SDS011;40184;53.362;5.216;2023-09-19T11:59:48;35.17;;;7.38;;
54271;SDS011;40184;53.362;5.216;2023-09-19T12:02:19;39.50;;;7.93;;
54271;SDS011;40184;53.362;5.216;2023-09-19T12:04:54;40.38;;;6.80;;
54271;SDS011;40184;53.362;5.216;2023-09-19T12:07:20;43.20;;;10.10;;
54271;SDS011;40184;53.362;5.216;2023-09-19T12:09:50;36.08;;;8.48;;
54271;SDS011;40184;53.362;5.216;2023-09-19T12:12:28;37.33;;;9.70;;
54271;SDS011;40184;53.362;5.216;2023-09-19T12:15:00;40.97;;;8.88;;
54271;SDS011;40184;53.362;5.216;2023-09-19T12:17:38;37.80;;;8.57;;
54271;SDS011;40184;53.362;5.216;2023-09-19T12:20:04;35.08;;;8.57;;
54271;SDS011;40184;53.362;5.216;2023-09-19T12:22:43;23.55;;;7.22;;
54271;SDS011;40184;53.362;5.216;2023-09-19T12:25:10;37.97;;;8.35;;
54271;SDS011;40184;53.362;5.216;2023-09-19T12:30:09;41.03;;;8.32;;
54271;SDS011;40184;53.362;5.216;2023-09-19T12:32:39;35.20;;;7.20;;
54271;SDS011;40184;53.362;5.216;2023-09-19T12:35:07;47.47;;;8.05;;
54271;SDS011;40184;53.362;5.216;2023-09-19T12:37:36;47.67;;;9.20;;
54271;SDS011;40184;53.362;5.216;2023-09-19T12:40:05;47.03;;;9.90;;
54271;SDS011;40184;53.362;5.216;2023-09-19T12:42:45;42.17;;;10.50;;
54271;SDS011;40184;53.362;5.216;2023-09-19T12:45:12;37.75;;;8.63;;
54271;SDS011;40184;53.362;5.216;2023-09-19T12:47:40;35.65;;;8.45;;
54271;SDS011;40184;53.362;5.216;2023-09-19T12:50:15;33.67;;;7.65;;
54271;SDS011;40184;53.362;5.216;2023-09-19T12:52:52;27.38;;;6.45;;
54271;SDS011;40184;53.362;5.216;2023-09-19T12:55:25;33.95;;;7.57;;
54271;SDS011;40184;53.362;5.216;2023-09-19T12:57:58;36.95;;;8.15;;
54271;SDS011;40184;53.362;5.216;2023-09-19T13:00:35;39.55;;;10.05;;
54271;SDS011;40184;53.362;5.216;2023-09-19T13:05:50;42.63;;;9.40;;
54271;SDS011;40184;53.362;5.216;2023-09-19T13:08:19;42.40;;;10.13;;
54271;SDS011;40184;53.362;5.216;2023-09-19T13:16:10;36.40;;;9.25;;
54271;SDS011;40184;53.362;5.216;2023-09-19T13:18:45;38.42;;;8.23;;
54271;SDS011;40184;53.362;5.216;2023-09-19T13:23:48;44.05;;;9.27;;
54271;SDS011;40184;53.362;5.216;2023-09-19T13:26:14;46.08;;;10.23;;
54271;SDS011;40184;53.362;5.216;2023-09-19T13:28:40;40.25;;;8.77;;
54271;SDS011;40184;53.362;5.216;2023-09-19T13:31:07;50.00;;;11.75;;
54271;SDS011;40184;53.362;5.216;2023-09-19T13:33:35;46.50;;;11.18;;
54271;SDS011;40184;53.362;5.216;2023-09-19T13:36:08;38.47;;;9.30;;
54271;SDS011;40184;53.362;5.216;2023-09-19T13:38:34;42.63;;;9.65;;
54271;SDS011;40184;53.362;5.216;2023-09-19T13:41:00;44.42;;;10.15;;
54271;SDS011;40184;53.362;5.216;2023-09-19T13:43:27;54.75;;;10.63;;
54271;SDS011;40184;53.362;5.216;2023-09-19T13:45:54;41.92;;;9.63;;
54271;SDS011;40184;53.362;5.216;2023-09-19T13:48:20;57.13;;;11.15;;
54271;SDS011;40184;53.362;5.216;2023-09-19T13:50:47;41.33;;;9.68;;
54271;SDS011;40184;53.362;5.216;2023-09-19T13:53:14;41.45;;;9.15;;
54271;SDS011;40184;53.362;5.216;2023-09-19T13:55:41;43.60;;;10.60;;
54271;SDS011;40184;53.362;5.216;2023-09-19T13:58:07;40.47;;;10.35;;
54271;SDS011;40184;53.362;5.216;2023-09-19T14:00:36;50.53;;;11.32;;
54271;SDS011;40184;53.362;5.216;2023-09-19T14:03:03;53.13;;;10.10;;
54271;SDS011;40184;53.362;5.216;2023-09-19T14:05:29;41.65;;;9.52;;
54271;SDS011;40184;53.362;5.216;2023-09-19T14:07:56;46.33;;;10.63;;
54271;SDS011;40184;53.362;5.216;2023-09-19T14:10:24;48.15;;;10.10;;
54271;SDS011;40184;53.362;5.216;2023-09-19T14:12:52;55.45;;;11.13;;
54271;SDS011;40184;53.362;5.216;2023-09-19T14:15:19;56.28;;;11.60;;
54271;SDS011;40184;53.362;5.216;2023-09-19T14:17:45;48.13;;;11.02;;
54271;SDS011;40184;53.362;5.216;2023-09-19T14:20:11;41.00;;;9.27;;
54271;SDS011;40184;53.362;5.216;2023-09-19T14:22:37;57.53;;;11.73;;
54271;SDS011;40184;53.362;5.216;2023-09-19T14:25:04;50.42;;;11.82;;
54271;SDS011;40184;53.362;5.216;2023-09-19T14:27:30;50.45;;;10.00;;
54271;SDS011;40184;53.362;5.216;2023-09-19T14:29:56;45.65;;;10.75;;
54271;SDS011;40184;53.362;5.216;2023-09-19T14:32:23;46.95;;;9.95;;
54271;SDS011;40184;53.362;5.216;2023-09-19T14:34:49;51.60;;;12.38;;
54271;SDS011;40184;53.362;5.216;2023-09-19T14:37:15;40.17;;;10.13;;
54271;SDS011;40184;53.362;5.216;2023-09-19T14:39:41;38.38;;;10.43;;
54271;SDS011;40184;53.362;5.216;2023-09-19T14:42:10;40.00;;;10.35;;
54271;SDS011;40184;53.362;5.216;2023-09-19T14:44:37;48.72;;;11.15;;
54271;SDS011;40184;53.362;5.216;2023-09-19T14:47:03;59.22;;;14.07;;
54271;SDS011;40184;53.362;5.216;2023-09-19T14:49:33;45.03;;;10.40;;
54271;SDS011;40184;53.362;5.216;2023-09-19T14:52:00;49.85;;;11.40;;
54271;SDS011;40184;53.362;5.216;2023-09-19T14:54:29;52.47;;;14.48;;
54271;SDS011;40184;53.362;5.216;2023-09-19T14:56:55;50.60;;;15.32;;
54271;SDS011;40184;53.362;5.216;2023-09-19T14:59:32;56.03;;;13.20;;
54271;SDS011;40184;53.362;5.216;2023-09-19T15:02:05;53.33;;;13.65;;
54271;SDS011;40184;53.362;5.216;2023-09-19T15:04:31;53.38;;;12.52;;
54271;SDS011;40184;53.362;5.216;2023-09-19T15:06:57;55.08;;;13.52;;
54271;SDS011;40184;53.362;5.216;2023-09-19T15:09:23;58.83;;;12.57;;
54271;SDS011;40184;53.362;5.216;2023-09-19T15:11:54;56.03;;;10.80;;
54271;SDS011;40184;53.362;5.216;2023-09-19T15:14:20;49.25;;;12.18;;
54271;SDS011;40184;53.362;5.216;2023-09-19T15:16:47;47.70;;;10.93;;
54271;SDS011;40184;53.362;5.216;2023-09-19T15:19:14;53.38;;;13.70;;
54271;SDS011;40184;53.362;5.216;2023-09-19T15:21:43;49.60;;;12.13;;
54271;SDS011;40184;53.362;5.216;2023-09-19T15:24:09;55.10;;;13.05;;
54271;SDS011;40184;53.362;5.216;2023-09-19T15:26:36;49.80;;;12.27;;
54271;SDS011;40184;53.362;5.216;2023-09-19T15:29:08;39.63;;;10.45;;
54271;SDS011;40184;53.362;5.216;2023-09-19T15:31:34;50.92;;;12.45;;
54271;SDS011;40184;53.362;5.216;2023-09-19T15:34:04;58.25;;;14.10;;
54271;SDS011;40184;53.362;5.216;2023-09-19T15:36:32;52.53;;;11.57;;
54271;SDS011;40184;53.362;5.216;2023-09-19T15:41:25;60.42;;;12.82;;
54271;SDS011;40184;53.362;5.216;2023-09-19T15:43:52;59.60;;;12.65;;
54271;SDS011;40184;53.362;5.216;2023-09-19T15:46:18;75.72;;;15.52;;